Time;durP1;ratioP1;P1;durP2;ratioP2;P2;SDS_P1;SDS_P2;PMS_P1;PMS_P2;Temp;Humidity;BMP_temperature;BMP_pressure;BME280_temperature;BME280_humidity;BME280_pressure;Samples;Min_cycle;Max_cycle;Signal;HPM_P1;HPM_P2
2021/05/11 00:00:16;;;;;;;5.30;3.45;;;;;;;14.18;57.20;99222.43;1820111;75;27908;-64
2021/05/11 00:02:52;;;;;;;5.12;3.25;;;;;;;14.17;57.21;99219.42;1833510;77;22424;-63
2021/05/11 00:05:29;;;;;;;8.47;3.60;;;;;;;14.15;57.38;99226.59;1815998;76;28014;-63
2021/05/11 00:08:06;;;;;;;6.33;2.90;;;;;;;14.19;57.38;99232.81;1831301;76;22832;-63
2021/05/11 00:10:42;;;;;;;8.18;3.75;;;;;;;14.16;57.45;99221.69;1823782;76;38314;-63
2021/05/11 00:13:18;;;;;;;6.03;3.70;;;;;;;14.18;57.30;99230.30;1753988;75;28041;-63
2021/05/11 00:15:53;;;;;;;7.53;4.00;;;;;;;14.20;57.44;99224.45;1808863;77;27863;-63
2021/05/11 00:18:29;;;;;;;5.70;3.40;;;;;;;14.29;57.41;99223.83;1779864;77;28039;-63
2021/05/11 00:21:06;;;;;;;7.27;3.77;;;;;;;14.29;57.43;99218.58;1778166;78;28610;-63
2021/05/11 00:23:42;;;;;;;9.00;3.67;;;;;;;14.32;57.50;99220.98;1776027;79;21044;-63
2021/05/11 00:26:17;;;;;;;8.83;3.97;;;;;;;14.27;57.59;99215.21;1786246;77;28070;-63
2021/05/11 00:28:53;;;;;;;12.40;3.90;;;;;;;14.26;57.53;99226.67;1821005;77;38163;-63
2021/05/11 00:31:29;;;;;;;8.80;4.00;;;;;;;14.27;57.55;99225.23;1781031;77;27946;-63
2021/05/11 00:34:05;;;;;;;7.03;4.12;;;;;;;14.26;57.57;99225.36;1779156;78;28182;-63
2021/05/11 00:36:41;;;;;;;8.33;3.80;;;;;;;14.27;57.63;99224.40;1778966;77;27966;-63
2021/05/11 00:39:21;;;;;;;9.48;3.80;;;;;;;14.29;57.65;99229.08;1830039;76;22615;-63
2021/05/11 00:41:57;;;;;;;8.70;4.30;;;;;;;14.20;57.77;99227.94;1805848;77;27992;-63
2021/05/11 00:44:36;;;;;;;5.78;3.33;;;;;;;14.13;57.66;99228.47;1839698;77;23083;-63
2021/05/11 00:47:12;;;;;;;8.53;4.03;;;;;;;14.00;57.78;99229.33;1809977;77;28647;-63
2021/05/11 00:49:49;;;;;;;8.47;4.00;;;;;;;13.94;57.75;99234.98;1784866;77;28068;-63
2021/05/11 00:52:25;;;;;;;12.07;4.53;;;;;;;13.90;57.78;99225.66;1814580;75;28442;-63
2021/05/11 00:55:05;;;;;;;5.05;3.50;;;;;;;13.87;57.86;99224.55;1829948;76;22729;-63
2021/05/11 00:57:42;;;;;;;9.95;3.70;;;;;;;13.79;57.98;99225.55;1829171;77;22720;-63
2021/05/11 01:00:19;;;;;;;7.83;4.22;;;;;;;13.73;58.06;99222.04;1784721;75;28608;-63
2021/05/11 01:02:54;;;;;;;11.90;3.70;;;;;;;13.75;58.04;99229.31;1832000;77;23421;-63
2021/05/11 01:05:30;;;;;;;7.63;4.30;;;;;;;13.73;58.10;99225.98;1809280;77;28081;-63
2021/05/11 01:08:06;;;;;;;5.90;4.40;;;;;;;13.76;58.06;99227.08;1814616;77;27964;-63
2021/05/11 01:10:46;;;;;;;3.83;3.10;;;;;;;13.77;58.04;99227.43;1793120;78;23040;-63
2021/05/11 01:13:22;;;;;;;9.70;4.00;;;;;;;13.70;58.15;99220.47;1780573;78;28644;-63
2021/05/11 01:15:58;;;;;;;8.97;4.00;;;;;;;13.69;58.12;99220.55;1763073;78;28049;-63
2021/05/11 01:18:35;;;;;;;5.08;3.05;;;;;;;13.69;58.17;99227.11;1828588;76;23298;-63
2021/05/11 01:21:33;;;;;;;7.12;2.98;;;;;;;13.57;58.32;99231.41;1829680;77;22672;-63
2021/05/11 01:29:30;;;;;;;7.23;3.90;;;;;;;13.00;58.69;99233.83;1778830;77;28123;-63
2021/05/11 01:54:43;;;;;;;8.20;4.60;;;;;;;12.90;59.63;99228.33;1813508;77;28335;-64
2021/05/11 02:22:38;;;;;;;5.83;4.15;;;;;;;12.68;60.10;99220.17;1793143;75;22709;-63
2021/05/11 02:24:12;;;;;;;16.00;4.22;;;;;;;12.69;60.16;99213.53;1800802;78;22836;-62
2021/05/11 02:26:48;;;;;;;8.30;5.07;;;;;;;12.67;60.20;99218.02;1817606;77;27907;-63
2021/05/11 02:29:24;;;;;;;10.43;4.30;;;;;;;12.69;60.00;99212.23;1813138;77;27976;-63
2021/05/11 02:32:00;;;;;;;10.33;4.23;;;;;;;12.74;60.03;99218.02;1809295;77;28610;-63
2021/05/11 02:34:35;;;;;;;10.33;4.27;;;;;;;12.79;60.05;99219.01;1814940;77;27867;-63
2021/05/11 02:37:11;;;;;;;6.55;3.42;;;;;;;12.83;60.11;99211.81;1828727;77;22481;-63
2021/05/11 02:39:46;;;;;;;14.20;4.37;;;;;;;12.78;60.22;99208.65;1797997;78;22763;-63
2021/05/11 02:42:23;;;;;;;14.67;4.67;;;;;;;12.68;60.34;99221.00;1779306;78;27929;-63
2021/05/11 02:44:58;;;;;;;10.53;5.00;;;;;;;12.65;60.34;99219.89;1809049;77;28840;-62
2021/05/11 02:47:46;;;;;;;13.37;5.40;;;;;;;12.63;60.32;99213.94;1809670;77;27973;-63
2021/05/11 02:50:12;;;;;;;10.65;5.05;;;;;;;12.64;60.35;99220.01;1825072;76;22457;-63
2021/05/11 02:52:49;;;;;;;9.70;4.67;;;;;;;12.55;60.58;99213.58;1817029;76;28614;-62
2021/05/11 02:55:25;;;;;;;8.15;4.83;;;;;;;12.54;60.56;99215.33;1787467;78;22779;-63
2021/05/11 02:58:01;;;;;;;9.93;4.60;;;;;;;12.49;60.79;99219.17;1814918;77;27870;-63
2021/05/11 03:00:37;;;;;;;7.63;4.83;;;;;;;12.51;60.72;99221.23;1820531;77;28487;-63
2021/05/11 03:03:12;;;;;;;11.07;5.13;;;;;;;12.58;60.76;99221.23;1819303;77;27970;-62
2021/05/11 03:05:48;;;;;;;10.30;4.83;;;;;;;12.64;60.80;99223.46;1814523;77;27892;-63
2021/05/11 03:08:24;;;;;;;14.68;4.62;;;;;;;12.68;60.79;99226.72;1815229;77;27899;-63
2021/05/11 03:11:00;;;;;;;8.63;4.70;;;;;;;12.70;60.84;99221.75;1784421;78;27975;-63
2021/05/11 03:13:36;;;;;;;10.57;5.20;;;;;;;12.74;60.92;99219.77;1780983;78;28255;-64
2021/05/11 03:16:12;;;;;;;9.47;5.07;;;;;;;13.05;61.25;99227.83;1812869;76;28856;-63
2021/05/11 03:18:48;;;;;;;9.67;4.90;;;;;;;13.92;61.39;99221.59;1808061;76;27961;-63
2021/05/11 03:21:27;;;;;;;12.25;4.25;;;;;;;14.88;61.13;99229.23;1795686;77;22453;-63
2021/05/11 03:24:04;;;;;;;8.23;4.80;;;;;;;15.67;60.43;99223.77;1785889;75;28006;-63
2021/05/11 03:26:40;;;;;;;15.85;4.83;;;;;;;16.38;60.08;99219.62;1828258;77;22822;-63
2021/05/11 03:29:15;;;;;;;21.83;5.80;;;;;;;17.08;59.99;99210.48;1810260;77;28336;-63
2021/05/11 03:31:51;;;;;;;12.05;4.37;;;;;;;18.02;59.89;99207.44;1828194;77;22286;-64
2021/05/11 03:34:27;;;;;;;14.03;5.03;;;;;;;18.90;59.48;99206.36;1780714;78;28053;-63
2021/05/11 03:37:04;;;;;;;10.67;5.03;;;;;;;19.75;58.69;99212.75;1779275;78;28236;-63
2021/05/11 03:39:42;;;;;;;13.62;4.78;;;;;;;20.31;58.13;99199.91;1837179;76;22762;-63
2021/05/11 03:42:22;;;;;;;7.65;4.10;;;;;;;20.71;56.97;99200.87;1834057;77;22737;-64
2021/05/11 03:45:03;;;;;;;15.25;4.53;;;;;;;20.90;56.10;99205.72;1832854;76;22452;-64
2021/05/11 03:48:25;;;;;;;18.98;4.87;;;;;;;21.27;55.27;99201.55;1744163;79;22710;-65
2021/05/11 03:51:05;;;;;;;25.10;6.00;;;;;;;21.55;54.90;99199.64;1778788;75;28586;-64
2021/05/11 03:53:39;;;;;;;22.07;5.28;;;;;;;22.04;54.79;99195.96;1801104;75;23577;-64
2021/05/11 03:56:14;;;;;;;24.90;6.05;;;;;;;22.61;53.99;99202.52;1814992;77;38377;-64
2021/05/11 03:58:53;;;;;;;19.70;5.70;;;;;;;23.31;54.22;99193.64;1829421;76;22172;-64
2021/05/11 04:01:29;;;;;;;40.63;7.50;;;;;;;24.01;52.83;99201.55;1810406;77;28021;-64
2021/05/11 04:04:05;;;;;;;22.00;5.80;;;;;;;24.44;52.14;99203.41;1815039;77;27876;-64
2021/05/11 04:06:44;;;;;;;31.97;6.80;;;;;;;24.73;51.32;99200.92;1786260;77;28226;-65
2021/05/11 04:17:43;;;;;;;32.67;5.53;;;;;;;25.90;48.84;99203.31;1792597;77;22932;-64
2021/05/11 04:20:18;;;;;;;26.57;5.90;;;;;;;25.99;48.18;99199.55;1831806;76;22745;-64
2021/05/11 04:22:54;;;;;;;21.75;4.92;;;;;;;26.06;47.77;99192.44;1751685;79;28464;-64
2021/05/11 04:25:30;;;;;;;36.85;6.22;;;;;;;26.29;47.35;99190.15;1778412;78;28739;-65
2021/05/11 04:28:06;;;;;;;35.25;6.35;;;;;;;26.52;46.49;99193.58;1815383;76;27917;-65
2021/05/11 04:30:42;;;;;;;32.85;6.65;;;;;;;26.89;46.26;99191.70;1785867;78;28019;-64
2021/05/11 04:33:17;;;;;;;21.60;4.67;;;;;;;27.15;46.01;99189.77;1783940;78;28021;-64
2021/05/11 04:35:53;;;;;;;15.40;4.47;;;;;;;27.61;45.23;99185.83;1821532;76;28661;-65
2021/05/11 04:38:30;;;;;;;22.83;5.70;;;;;;;27.74;44.65;99186.45;1835783;77;23110;-65
2021/05/11 04:41:06;;;;;;;18.90;4.78;;;;;;;27.66;43.71;99190.10;1810791;77;27976;-65
2021/05/11 04:43:44;;;;;;;12.40;4.28;;;;;;;27.79;43.83;99188.89;1833794;76;22736;-65
2021/05/11 04:46:28;;;;;;;8.63;3.07;;;;;;;27.98;43.18;99187.84;1827273;77;22825;-65
2021/05/11 04:49:02;;;;;;;10.80;3.42;;;;;;;28.30;42.84;99182.34;1796198;78;21855;-65
2021/05/11 04:51:38;;;;;;;10.13;4.30;;;;;;;28.50;42.17;99185.13;1784515;77;28967;-65
2021/05/11 04:54:14;;;;;;;11.20;3.57;;;;;;;28.61;41.65;99177.82;1830553;76;21972;-65
2021/05/11 04:56:50;;;;;;;15.67;4.40;;;;;;;28.74;41.07;99177.05;1825661;76;27961;-65
2021/05/11 04:59:26;;;;;;;17.50;4.40;;;;;;;28.67;40.38;99175.66;1785710;77;29196;-65
2021/05/11 05:02:04;;;;;;;26.07;5.15;;;;;;;28.69;40.25;99170.92;1811831;77;28049;-65
2021/05/11 05:04:39;;;;;;;7.37;4.60;;;;;;;28.94;40.19;99171.70;1790712;78;22535;-65
2021/05/11 05:07:15;;;;;;;13.60;4.10;;;;;;;29.12;39.65;99177.31;1814330;77;28079;-65
2021/05/11 05:09:51;;;;;;;9.27;3.70;;;;;;;29.54;39.72;99163.13;1808611;77;29326;-65
2021/05/11 05:12:27;;;;;;;15.95;4.33;;;;;;;30.00;39.09;99167.63;1817304;76;29475;-65
2021/05/11 05:15:05;;;;;;;13.10;4.00;;;;;;;30.28;38.38;99163.31;1785115;78;38408;-65
2021/05/11 05:18:59;;;;;;;12.23;4.83;;;;;;;30.40;37.87;99162.11;1784071;77;38265;-65
2021/05/11 05:21:35;;;;;;;14.70;5.53;;;;;;;30.38;36.92;99156.10;1782382;77;27884;-65
2021/05/11 05:26:54;;;;;;;12.00;5.20;;;;;;;29.87;36.18;99151.52;1793845;78;22776;-65
2021/05/11 05:29:30;;;;;;;6.62;3.52;;;;;;;29.81;36.36;99157.75;1830499;77;22798;-65
2021/05/11 05:32:07;;;;;;;8.53;3.73;;;;;;;29.63;35.70;99156.55;1816614;77;27974;-65
2021/05/11 05:34:46;;;;;;;7.65;3.17;;;;;;;29.65;35.37;99153.11;1741365;78;22951;-65
2021/05/11 05:37:21;;;;;;;18.70;4.45;;;;;;;29.42;35.28;99151.37;1788672;77;28229;-65
2021/05/11 05:39:59;;;;;;;9.08;3.72;;;;;;;29.27;34.97;99156.12;1753712;77;38594;-64
2021/05/11 05:42:34;;;;;;;9.68;3.40;;;;;;;29.20;34.72;99155.61;1798684;78;22777;-64
2021/05/11 05:45:11;;;;;;;11.15;3.80;;;;;;;28.90;34.60;99147.59;1798304;77;28556;-64
2021/05/11 05:47:50;;;;;;;17.90;3.37;;;;;;;28.80;34.69;99155.25;1794864;78;22003;-65
2021/05/11 05:50:29;;;;;;;7.37;2.90;;;;;;;28.83;34.50;99155.66;1829333;77;21895;-64
2021/05/11 05:53:12;;;;;;;6.92;3.40;;;;;;;28.62;34.57;99158.50;1826637;77;23757;-65
2021/05/11 05:55:42;;;;;;;41.30;7.78;;;;;;;28.48;34.17;99161.66;1794811;77;22608;-64
2021/05/11 05:58:18;;;;;;;11.53;3.62;;;;;;;28.40;34.60;99167.18;1819549;76;27896;-65
2021/05/11 06:00:59;;;;;;;6.70;3.43;;;;;;;28.74;34.21;99156.38;1813684;77;28009;-64
2021/05/11 06:06:19;;;;;;;6.33;3.45;;;;;;;28.89;34.16;99162.90;1794484;78;23451;-65
2021/05/11 06:08:57;;;;;;;10.03;3.60;;;;;;;28.80;34.21;99161.97;1832623;77;23172;-65
2021/05/11 06:19:39;;;;;;;21.85;3.85;;;;;;;27.70;33.99;99147.13;1837350;77;22286;-65
2021/05/11 06:22:16;;;;;;;7.05;3.52;;;;;;;27.44;33.90;99140.55;1817343;76;27992;-65
2021/05/11 06:24:52;;;;;;;27.00;4.47;;;;;;;27.27;33.52;99141.05;1794321;77;22806;-65
2021/05/11 06:27:28;;;;;;;19.05;4.33;;;;;;;26.71;34.20;99147.92;1783485;77;28111;-65
2021/05/11 06:30:05;;;;;;;10.90;3.65;;;;;;;26.83;34.51;99151.44;1813302;77;27962;-64
2021/05/11 06:32:40;;;;;;;14.50;3.58;;;;;;;27.22;34.43;99145.15;1774797;77;22128;-64
2021/05/11 06:35:18;;;;;;;16.25;4.30;;;;;;;27.29;34.55;99147.05;1816861;75;38364;-64
2021/05/11 06:37:58;;;;;;;9.00;3.50;;;;;;;27.21;34.53;99142.64;1828207;77;22504;-64
2021/05/11 06:40:38;;;;;;;31.30;4.53;;;;;;;27.04;34.71;99147.94;1791702;78;23420;-64
2021/05/11 06:43:21;;;;;;;12.10;3.30;;;;;;;26.82;35.11;99146.59;1828364;77;22752;-64
2021/05/11 06:54:05;;;;;;;11.70;3.17;;;;;;;27.18;35.64;99153.76;1793545;75;22836;-64
2021/05/11 06:56:46;;;;;;;9.05;3.35;;;;;;;27.36;35.44;99147.91;1793340;78;22847;-63
2021/05/11 06:59:26;;;;;;;35.88;4.20;;;;;;;27.10;35.36;99145.83;1840471;76;22454;-64
2021/05/11 07:02:04;;;;;;;17.12;5.90;;;;;;;26.76;35.59;99139.33;1771685;77;24044;-64
2021/05/11 07:04:40;;;;;;;23.63;4.40;;;;;;;26.45;35.48;99132.39;1804001;77;20953;-64
2021/05/11 07:07:16;;;;;;;10.10;3.17;;;;;;;26.14;35.82;99126.48;1776077;78;28120;-63
2021/05/11 07:15:22;;;;;;;10.17;3.40;;;;;;;26.73;36.32;99134.36;1795213;78;22412;-63
2021/05/11 07:18:11;;;;;;;17.57;3.83;;;;;;;26.58;35.59;99128.22;1777384;77;28600;-63
2021/05/11 07:20:49;;;;;;;24.73;4.50;;;;;;;26.39;36.34;99122.45;1802694;78;23404;-62
2021/05/11 07:23:26;;;;;;;28.93;5.13;;;;;;;26.41;36.78;99124.92;1772223;77;22187;-63
2021/05/11 07:26:26;;;;;;;17.17;5.00;;;;;;;26.21;36.49;99126.03;1823004;77;22725;-62
2021/05/11 07:29:02;;;;;;;31.15;5.58;;;;;;;25.72;36.78;99125.28;1650476;86;21678;-63
2021/05/11 07:31:26;;;;;;;19.93;4.60;;;;;;;25.43;36.96;99127.77;1826755;77;23047;-62
2021/05/11 07:36:51;;;;;;;19.37;3.67;;;;;;;25.02;37.47;99120.59;1828557;76;22311;-63
2021/05/11 07:39:27;;;;;;;14.58;3.42;;;;;;;24.76;37.65;99123.14;1778225;77;28740;-62
2021/05/11 07:42:04;;;;;;;15.57;3.70;;;;;;;24.70;37.80;99126.53;1777916;78;28034;-62
2021/05/11 07:44:46;;;;;;;13.88;4.03;;;;;;;24.65;38.01;99131.56;1781239;78;28147;-62
2021/05/11 07:47:30;;;;;;;26.57;4.75;;;;;;;24.67;38.23;99131.38;1790365;78;22750;-62
2021/05/11 07:50:31;;;;;;;23.73;4.97;;;;;;;24.70;38.61;99131.87;1798030;78;22759;-63
2021/05/11 08:01:59;;;;;;;11.53;3.50;;;;;;;24.27;38.94;99128.75;1781559;77;28061;-63
2021/05/11 08:16:19;;;;;;;9.65;2.83;;;;;;;23.67;39.61;99123.98;1831906;77;22460;-62
2021/05/11 08:30:18;;;;;;;14.53;3.75;;;;;;;23.87;40.41;99126.59;1796501;76;22792;-63
2021/05/11 08:33:37;;;;;;;49.65;4.90;;;;;;;23.94;40.43;99117.91;1826256;77;21952;-63
2021/05/11 08:36:14;;;;;;;7.22;3.05;;;;;;;23.92;40.39;99127.91;1800441;77;21577;-63
2021/05/11 08:38:50;;;;;;;41.90;5.72;;;;;;;23.86;40.60;99119.62;1821271;76;28109;-63
2021/05/11 08:41:30;;;;;;;14.63;3.50;;;;;;;24.00;40.55;99129.20;1786474;78;21852;-63
2021/05/11 08:44:53;;;;;;;9.30;3.00;;;;;;;24.07;40.93;99124.86;1792854;75;22826;-63
2021/05/11 08:47:30;;;;;;;9.10;3.30;;;;;;;24.07;40.94;99124.86;1777363;77;27960;-63
2021/05/11 08:50:06;;;;;;;14.85;3.33;;;;;;;24.27;40.71;99128.75;1824221;76;22754;-63
2021/05/11 09:25:51;;;;;;;14.65;3.20;;;;;;;24.47;40.31;99113.15;1826108;75;22321;-63
2021/05/11 09:28:39;;;;;;;6.37;2.77;;;;;;;24.55;40.31;99106.94;1798838;77;22620;-64
2021/05/11 09:31:32;;;;;;;27.77;3.95;;;;;;;24.57;40.40;99102.26;1792428;78;22516;-63
2021/05/11 09:51:51;;;;;;;11.33;3.20;;;;;;;24.65;40.03;99100.05;1801275;77;22077;-64
